createdAt,value
2023-03-31T00:02:13.817Z,-2.34
2023-03-31T00:04:45.734Z,-2.39
2023-03-31T00:07:16.612Z,-2.41
2023-03-31T00:09:48.037Z,-2.47
2023-03-31T00:12:16.414Z,-2.61
2023-03-31T00:14:43.658Z,-2.65
2023-03-31T00:17:11.758Z,-2.58
2023-03-31T00:19:39.954Z,-2.49
2023-03-31T00:22:08.219Z,-2.53
2023-03-31T00:24:35.887Z,-2.47
2023-03-31T00:27:04.030Z,-2.51
2023-03-31T00:29:33.348Z,-2.47
2023-03-31T00:32:00.724Z,-2.56
2023-03-31T00:34:28.324Z,-2.65
2023-03-31T00:36:57.904Z,-2.74
2023-03-31T00:39:25.432Z,-2.87
2023-03-31T00:41:52.566Z,-2.91
2023-03-31T00:44:22.514Z,-2.86
2023-03-31T00:46:53.138Z,-2.87
2023-03-31T00:49:32.860Z,-2.73
2023-03-31T00:52:10.664Z,-2.53
2023-03-31T00:54:38.339Z,-2.31
2023-03-31T00:57:06.534Z,-2.08
2023-03-31T00:59:37.796Z,-1.75
2023-03-31T01:02:05.114Z,-1.49
2023-03-31T01:04:35.364Z,-1.18
2023-03-31T01:07:16.665Z,-0.81
2023-03-31T01:09:47.072Z,-0.58
2023-03-31T01:12:16.008Z,-0.36
2023-03-31T01:14:44.053Z,-0.27
2023-03-31T01:17:19.040Z,-0.17
2023-03-31T01:20:12.242Z,-0.12
2023-03-31T01:23:10.386Z,0.36
2023-03-31T01:25:58.694Z,0.96
2023-03-31T01:28:32.007Z,1.44
2023-03-31T01:30:59.420Z,1.71
2023-03-31T01:33:57.288Z,2.00
2023-03-31T01:36:46.322Z,2.45
2023-03-31T01:39:46.718Z,2.83
2023-03-31T01:42:18.402Z,3.17
2023-03-31T01:45:12.110Z,3.48
2023-03-31T01:47:47.120Z,4.06
2023-03-31T01:50:20.515Z,5.90
2023-03-31T01:53:03.684Z,7.13
2023-03-31T01:55:39.127Z,8.94
2023-03-31T01:58:16.669Z,10.11
2023-03-31T02:01:06.245Z,11.44
2023-03-31T02:03:36.381Z,12.22
2023-03-31T02:06:09.515Z,12.07
2023-03-31T02:08:40.177Z,12.10
2023-03-31T02:11:07.606Z,12.42
2023-03-31T02:13:35.199Z,13.04
2023-03-31T02:16:07.188Z,13.38
2023-03-31T02:18:38.012Z,13.85
2023-03-31T02:21:05.839Z,13.68
2023-03-31T02:23:32.953Z,12.78
2023-03-31T02:26:07.133Z,12.20
2023-03-31T02:28:34.479Z,12.13
2023-03-31T02:31:17.185Z,13.04
2023-03-31T02:33:44.289Z,13.06
2023-03-31T02:36:11.506Z,12.65
2023-03-31T02:38:53.951Z,12.13
2023-03-31T02:41:21.671Z,12.00
2023-03-31T02:43:50.160Z,11.60
2023-03-31T02:46:17.682Z,11.45
2023-03-31T02:48:48.038Z,11.43
2023-03-31T02:51:34.219Z,11.78
2023-03-31T02:54:11.192Z,12.21
2023-03-31T02:57:13.020Z,12.02
2023-03-31T02:59:43.578Z,11.62
2023-03-31T03:02:29.973Z,11.24
2023-03-31T03:05:34.931Z,10.69
2023-03-31T03:08:58.328Z,10.55
2023-03-31T03:11:32.861Z,10.40
2023-03-31T03:14:20.393Z,10.17
2023-03-31T03:16:50.155Z,9.84
2023-03-31T03:19:21.246Z,8.96
2023-03-31T03:21:48.556Z,8.48
2023-03-31T03:24:16.731Z,8.68
2023-03-31T03:26:44.903Z,9.29
2023-03-31T03:29:15.396Z,8.58
2023-03-31T03:31:43.318Z,7.79
2023-03-31T03:34:10.630Z,6.97
2023-03-31T03:36:38.234Z,6.11
2023-03-31T03:39:07.263Z,5.46
2023-03-31T03:41:34.432Z,5.01
2023-03-31T03:44:01.811Z,4.72
2023-03-31T03:46:29.413Z,4.55
2023-03-31T03:48:56.613Z,4.70
2023-03-31T03:51:23.935Z,4.90
2023-03-31T03:53:51.236Z,4.94
2023-03-31T03:56:18.691Z,5.09
2023-03-31T03:58:46.261Z,5.11
2023-03-31T04:01:14.584Z,5.24
2023-03-31T04:03:41.927Z,5.60
2023-03-31T04:06:09.308Z,5.86
2023-03-31T04:08:39.987Z,6.24
2023-03-31T04:11:17.353Z,6.49
2023-03-31T04:13:46.262Z,6.28
2023-03-31T04:16:13.872Z,6.07
2023-03-31T04:18:43.867Z,5.90
2023-03-31T04:21:14.975Z,5.78
2023-03-31T04:23:49.239Z,5.85
2023-03-31T04:26:18.239Z,5.93
2023-03-31T04:28:50.339Z,5.93
2023-03-31T04:31:25.012Z,6.44
2023-03-31T04:33:53.550Z,7.01
2023-03-31T04:36:21.448Z,7.07
2023-03-31T04:38:55.048Z,6.95
2023-03-31T04:41:22.894Z,7.32
2023-03-31T04:43:50.543Z,7.79
2023-03-31T04:46:18.032Z,8.00
2023-03-31T04:48:45.518Z,7.68
2023-03-31T04:51:15.162Z,7.51
2023-03-31T04:53:42.285Z,7.38
2023-03-31T04:56:10.077Z,6.95
2023-03-31T04:58:37.636Z,6.71
2023-03-31T05:01:08.136Z,5.41
2023-03-31T05:03:36.081Z,3.96
2023-03-31T05:06:03.345Z,3.07
2023-03-31T05:08:30.449Z,2.46
2023-03-31T05:10:58.139Z,1.87
2023-03-31T05:13:25.308Z,1.55
2023-03-31T05:15:52.450Z,1.40
2023-03-31T05:18:20.038Z,1.11
2023-03-31T05:20:47.147Z,0.83
2023-03-31T05:23:14.573Z,0.58
2023-03-31T05:25:42.345Z,0.39
2023-03-31T05:28:09.976Z,0.18
2023-03-31T05:30:37.570Z,-0.16
2023-03-31T05:33:05.043Z,-0.49
2023-03-31T05:35:32.612Z,-0.74
2023-03-31T05:38:00.266Z,-0.92
2023-03-31T05:40:27.489Z,-1.02
2023-03-31T05:42:54.843Z,-1.06
2023-03-31T05:45:22.354Z,-1.01
2023-03-31T05:47:49.789Z,-0.90
2023-03-31T05:50:17.233Z,-0.64
2023-03-31T05:52:44.353Z,-0.41
2023-03-31T05:55:12.998Z,-0.08
2023-03-31T05:57:40.307Z,0.47
2023-03-31T06:00:10.727Z,0.86
2023-03-31T06:02:38.028Z,1.40
2023-03-31T06:05:06.053Z,2.24
2023-03-31T06:07:33.717Z,3.02
2023-03-31T06:10:00.865Z,3.59
2023-03-31T06:12:28.113Z,3.63
2023-03-31T06:14:55.577Z,3.60
2023-03-31T06:17:22.793Z,3.32
2023-03-31T06:19:50.244Z,3.41
2023-03-31T06:22:17.245Z,3.71
2023-03-31T06:24:44.354Z,3.80
2023-03-31T06:27:11.435Z,3.57
2023-03-31T06:29:38.862Z,3.36
2023-03-31T06:32:06.773Z,3.42
2023-03-31T06:34:34.240Z,3.30
2023-03-31T06:37:01.604Z,3.46
2023-03-31T06:39:29.264Z,3.70
2023-03-31T06:41:56.786Z,4.06
2023-03-31T06:44:28.196Z,4.38
2023-03-31T06:46:55.443Z,4.54
2023-03-31T06:49:22.589Z,4.61
2023-03-31T06:51:50.712Z,4.61
2023-03-31T06:54:18.144Z,4.70
2023-03-31T06:56:45.651Z,4.62
2023-03-31T06:59:13.143Z,4.67
2023-03-31T07:01:42.719Z,4.56
2023-03-31T07:04:09.908Z,4.55
2023-03-31T07:06:37.344Z,3.83
2023-03-31T07:09:04.512Z,3.14
2023-03-31T07:11:31.853Z,2.85
2023-03-31T07:13:59.195Z,2.71
2023-03-31T07:16:26.634Z,2.10
2023-03-31T07:18:59.165Z,1.60
2023-03-31T07:21:26.923Z,1.00
2023-03-31T07:23:54.582Z,0.47
2023-03-31T07:26:21.986Z,0.04
2023-03-31T07:28:49.101Z,-0.25
2023-03-31T07:31:16.590Z,-0.46
2023-03-31T07:33:44.156Z,-0.51
2023-03-31T07:36:13.858Z,-0.66
2023-03-31T07:38:42.602Z,-0.65
2023-03-31T07:41:13.752Z,-0.53
2023-03-31T07:43:41.137Z,-0.68
2023-03-31T07:46:14.747Z,-0.73
2023-03-31T07:48:43.620Z,-0.80
2023-03-31T07:51:10.654Z,-0.83
2023-03-31T07:53:37.819Z,-0.50
2023-03-31T07:56:05.602Z,-0.07
2023-03-31T07:58:33.483Z,0.23
2023-03-31T08:01:00.911Z,0.34
2023-03-31T08:03:28.868Z,0.83
2023-03-31T08:05:56.386Z,1.36
2023-03-31T08:08:24.120Z,1.93
2023-03-31T08:10:51.391Z,2.27
2023-03-31T08:13:18.725Z,2.49
2023-03-31T08:15:46.435Z,2.57
2023-03-31T08:18:13.585Z,2.79
2023-03-31T08:20:40.829Z,2.91
2023-03-31T08:23:11.075Z,3.04
2023-03-31T08:25:38.777Z,3.08
2023-03-31T08:28:06.653Z,3.11
2023-03-31T08:30:34.155Z,3.13
2023-03-31T08:33:01.714Z,3.07
2023-03-31T08:35:28.897Z,2.85
2023-03-31T08:37:56.222Z,2.84
2023-03-31T08:40:24.595Z,2.93
2023-03-31T08:43:05.192Z,3.16
2023-03-31T08:45:50.760Z,3.26
2023-03-31T08:48:34.789Z,3.00
2023-03-31T08:51:08.474Z,2.52
2023-03-31T08:53:39.314Z,2.28
2023-03-31T08:56:08.564Z,2.34
2023-03-31T08:58:40.304Z,1.90
2023-03-31T09:01:47.738Z,1.32
2023-03-31T09:04:27.138Z,0.98
2023-03-31T09:07:11.903Z,0.76
2023-03-31T09:10:13.268Z,0.46
2023-03-31T09:12:46.826Z,0.37
2023-03-31T09:15:46.271Z,0.40
2023-03-31T09:18:35.959Z,0.17
2023-03-31T09:21:26.541Z,0.25
2023-03-31T09:24:01.721Z,0.52
2023-03-31T09:26:45.590Z,0.67
2023-03-31T09:29:18.394Z,0.71
2023-03-31T09:31:46.576Z,0.77
2023-03-31T09:34:16.620Z,0.90
2023-03-31T09:36:44.129Z,0.81
2023-03-31T09:39:15.089Z,0.86
2023-03-31T09:41:45.599Z,1.04
2023-03-31T09:44:25.049Z,1.29
2023-03-31T09:46:53.292Z,1.37
2023-03-31T09:49:26.524Z,1.17
2023-03-31T09:52:09.597Z,1.00
2023-03-31T09:54:56.425Z,0.94
2023-03-31T09:57:31.257Z,1.11
2023-03-31T10:00:16.054Z,1.30
2023-03-31T10:02:50.300Z,1.26
2023-03-31T10:05:36.563Z,0.90
2023-03-31T10:08:27.732Z,0.47
2023-03-31T10:11:04.194Z,0.20
2023-03-31T10:13:59.685Z,0.10
2023-03-31T10:16:29.851Z,0.05
2023-03-31T10:19:19.029Z,-0.08
2023-03-31T10:21:47.097Z,-0.17
2023-03-31T10:24:18.532Z,-0.31
2023-03-31T10:26:49.977Z,-0.50
2023-03-31T10:29:22.195Z,-0.71
2023-03-31T10:31:49.746Z,-0.68
2023-03-31T10:34:17.304Z,-0.55
2023-03-31T10:36:47.251Z,-0.32
2023-03-31T10:39:16.900Z,-0.01
2023-03-31T10:41:43.970Z,0.45
2023-03-31T10:44:35.196Z,0.68
2023-03-31T10:47:14.558Z,0.58
2023-03-31T10:49:43.181Z,0.55
2023-03-31T10:52:27.368Z,0.72
2023-03-31T10:54:59.019Z,0.76
2023-03-31T10:57:38.533Z,0.56
2023-03-31T11:00:30.869Z,0.27
2023-03-31T11:03:10.079Z,-0.10
2023-03-31T11:05:47.343Z,-0.22
2023-03-31T11:08:26.960Z,-0.30
2023-03-31T11:11:39.323Z,-0.38
2023-03-31T11:14:47.758Z,-0.31
2023-03-31T11:17:49.222Z,-0.13
2023-03-31T11:20:35.544Z,0.02
2023-03-31T11:23:15.354Z,0.05
2023-03-31T11:26:14.888Z,-0.04
2023-03-31T11:29:01.359Z,-0.01
2023-03-31T11:31:38.668Z,-0.21
2023-03-31T11:34:40.060Z,-0.39
2023-03-31T11:37:31.556Z,-0.69
2023-03-31T11:40:29.287Z,-0.92
2023-03-31T11:43:01.493Z,-1.21
2023-03-31T11:45:40.239Z,-1.30
2023-03-31T11:48:14.267Z,-1.55
2023-03-31T11:50:41.602Z,-1.74
2023-03-31T11:53:19.007Z,-1.93
2023-03-31T11:55:47.561Z,-2.06
2023-03-31T11:58:19.324Z,-2.22
2023-03-31T12:01:01.177Z,-2.29
2023-03-31T12:04:01.001Z,-2.49
2023-03-31T12:06:34.169Z,-2.77
2023-03-31T12:09:23.288Z,-2.83
2023-03-31T12:11:57.676Z,-3.09
2023-03-31T12:14:38.888Z,-3.15
2023-03-31T12:17:14.233Z,-3.17
2023-03-31T12:19:59.718Z,-3.24
2023-03-31T12:22:26.876Z,-3.19
2023-03-31T12:24:54.060Z,-3.22
2023-03-31T12:27:24.293Z,-3.32
2023-03-31T12:30:00.869Z,-3.52
2023-03-31T12:32:36.785Z,-3.74
2023-03-31T12:35:24.747Z,-3.85
2023-03-31T12:38:42.817Z,-3.87
2023-03-31T12:41:18.767Z,-3.95
2023-03-31T12:44:10.938Z,-4.04
2023-03-31T12:46:59.737Z,-4.09
2023-03-31T12:49:42.082Z,-4.19
2023-03-31T12:52:18.799Z,-4.34
2023-03-31T12:55:10.761Z,-4.42
2023-03-31T12:57:37.856Z,-4.49
2023-03-31T13:00:12.348Z,-4.54
2023-03-31T13:02:40.476Z,-4.56
2023-03-31T13:05:47.280Z,-4.54
2023-03-31T13:08:50.310Z,-4.61
2023-03-31T13:11:22.606Z,-4.74
2023-03-31T13:14:02.294Z,-4.84
2023-03-31T13:16:30.416Z,-4.97
2023-03-31T13:18:57.536Z,-5.07
2023-03-31T13:21:25.569Z,-5.16
2023-03-31T13:23:53.371Z,-5.19
2023-03-31T13:26:36.745Z,-5.32
2023-03-31T13:29:13.917Z,-5.42
2023-03-31T13:32:02.941Z,-5.58
2023-03-31T13:35:00.285Z,-5.69
2023-03-31T13:38:04.287Z,-5.81
2023-03-31T13:40:50.331Z,-5.91
2023-03-31T13:43:36.040Z,-6.06
2023-03-31T13:46:26.557Z,-6.06
2023-03-31T13:49:01.105Z,-6.12
2023-03-31T13:51:53.203Z,-6.08
2023-03-31T13:55:13.557Z,-6.05
2023-03-31T13:57:52.872Z,-6.09
2023-03-31T14:00:41.954Z,-6.10
2023-03-31T14:03:17.008Z,-6.14
2023-03-31T14:05:53.791Z,-6.17
2023-03-31T14:08:47.339Z,-6.14
2023-03-31T14:11:24.728Z,-6.15
2023-03-31T14:14:01.063Z,-6.24
2023-03-31T14:16:28.471Z,-6.27
2023-03-31T14:19:14.991Z,-6.25
2023-03-31T14:22:06.294Z,-6.26
2023-03-31T14:24:42.751Z,-6.19
2023-03-31T14:27:40.865Z,-6.08
2023-03-31T14:30:13.784Z,-6.10
2023-03-31T14:32:48.208Z,-6.17
2023-03-31T14:35:28.967Z,-6.31
2023-03-31T14:37:56.343Z,-6.40
2023-03-31T14:40:23.946Z,-6.44
2023-03-31T14:42:51.494Z,-6.48
2023-03-31T14:45:21.826Z,-6.58
2023-03-31T14:48:00.016Z,-6.64
2023-03-31T14:50:33.958Z,-6.79
2023-03-31T14:53:02.368Z,-6.85
2023-03-31T14:55:44.239Z,-6.97
2023-03-31T14:58:37.447Z,-6.98
2023-03-31T15:01:06.532Z,-7.00
2023-03-31T15:03:35.040Z,-7.07
2023-03-31T15:06:02.841Z,-7.14
2023-03-31T15:08:30.667Z,-7.11
2023-03-31T15:11:11.810Z,-7.21
2023-03-31T15:14:00.538Z,-7.18
2023-03-31T15:16:29.749Z,-7.14
2023-03-31T15:18:57.764Z,-7.12
2023-03-31T15:21:26.934Z,-7.08
2023-03-31T15:23:57.522Z,-7.08
2023-03-31T15:26:38.462Z,-7.05
2023-03-31T15:29:17.320Z,-7.01
2023-03-31T15:31:45.071Z,-7.07
2023-03-31T15:34:15.772Z,-7.12
2023-03-31T15:36:43.439Z,-7.11
2023-03-31T15:39:11.093Z,-7.07
2023-03-31T15:41:38.210Z,-7.13
2023-03-31T15:44:33.957Z,-7.14
2023-03-31T15:47:22.030Z,-7.13
2023-03-31T15:50:04.580Z,-7.29
2023-03-31T15:52:35.917Z,-7.27
2023-03-31T15:55:23.547Z,-7.30
2023-03-31T15:57:52.990Z,-7.25
2023-03-31T16:00:45.308Z,-7.28
2023-03-31T16:03:38.323Z,-7.35
2023-03-31T16:06:06.043Z,-7.28
2023-03-31T16:08:44.814Z,-7.18
2023-03-31T16:11:27.926Z,-7.12
2023-03-31T16:13:57.136Z,-7.02
2023-03-31T16:16:25.180Z,-7.05
2023-03-31T16:18:55.387Z,-6.89
2023-03-31T16:21:28.930Z,-7.03
2023-03-31T16:23:57.409Z,-7.08
2023-03-31T16:26:25.957Z,-7.27
2023-03-31T16:28:53.768Z,-7.34
2023-03-31T16:31:35.660Z,-7.47
2023-03-31T16:34:05.131Z,-7.56
2023-03-31T16:36:32.572Z,-7.64
2023-03-31T16:39:02.211Z,-7.63
2023-03-31T16:41:29.813Z,-7.65
2023-03-31T16:43:57.200Z,-7.66
2023-03-31T16:46:25.212Z,-7.62
2023-03-31T16:48:52.800Z,-7.70
2023-03-31T16:51:20.508Z,-7.80
2023-03-31T16:53:47.886Z,-7.79
2023-03-31T16:56:15.410Z,-7.79
2023-03-31T16:58:43.408Z,-7.78
2023-03-31T17:01:11.240Z,-7.70
2023-03-31T17:03:40.923Z,-7.66
2023-03-31T17:06:11.088Z,-7.73
2023-03-31T17:08:39.351Z,-7.79
2023-03-31T17:11:11.750Z,-7.74
2023-03-31T17:13:39.568Z,-7.73
2023-03-31T17:18:55.548Z,-7.66
2023-03-31T17:21:23.799Z,-7.63
2023-03-31T17:23:50.867Z,-7.68
2023-03-31T17:26:18.254Z,-7.65
2023-03-31T17:28:45.862Z,-7.66
2023-03-31T17:31:16.921Z,-7.77
2023-03-31T17:33:44.525Z,-7.82
2023-03-31T17:36:11.679Z,-7.84
2023-03-31T17:38:39.908Z,-7.92
2023-03-31T17:41:08.367Z,-7.95
2023-03-31T17:43:35.565Z,-7.91
2023-03-31T17:46:04.919Z,-7.87
2023-03-31T17:48:34.095Z,-7.88
2023-03-31T17:51:05.614Z,-7.78
2023-03-31T17:53:33.483Z,-7.81
2023-03-31T17:56:01.744Z,-7.76
2023-03-31T17:58:28.869Z,-7.75
2023-03-31T18:00:56.940Z,-7.79
2023-03-31T18:03:24.549Z,-7.80
2023-03-31T18:05:52.029Z,-7.87
2023-03-31T18:08:19.084Z,-7.86
2023-03-31T18:10:46.912Z,-7.86
2023-03-31T18:13:14.350Z,-7.94
2023-03-31T18:15:48.389Z,-8.03
2023-03-31T18:18:15.805Z,-8.04
2023-03-31T18:20:42.914Z,-8.16
2023-03-31T18:23:10.222Z,-8.25
2023-03-31T18:25:38.276Z,-8.39
2023-03-31T18:28:05.975Z,-8.42
2023-03-31T18:30:33.622Z,-8.45
2023-03-31T18:33:01.453Z,-8.43
2023-03-31T18:35:29.134Z,-8.43
2023-03-31T18:37:56.810Z,-8.44
2023-03-31T18:40:24.234Z,-8.45
2023-03-31T18:42:51.742Z,-8.47
2023-03-31T18:45:19.184Z,-8.49
2023-03-31T18:47:46.757Z,-8.51
2023-03-31T18:50:14.279Z,-8.47
2023-03-31T18:52:41.472Z,-8.43
2023-03-31T18:55:09.318Z,-8.41
2023-03-31T18:57:36.428Z,-8.36
2023-03-31T19:00:05.485Z,-8.35
2023-03-31T19:02:33.207Z,-8.32
2023-03-31T19:05:00.754Z,-8.26
2023-03-31T19:07:28.442Z,-8.20
2023-03-31T19:09:55.758Z,-8.17
2023-03-31T19:12:23.570Z,-8.19
2023-03-31T19:14:50.620Z,-8.17
2023-03-31T19:17:19.755Z,-8.12
2023-03-31T19:19:47.414Z,-8.19
2023-03-31T19:22:15.429Z,-8.18
2023-03-31T19:24:43.590Z,-8.20
2023-03-31T19:27:12.341Z,-8.16
2023-03-31T19:29:39.827Z,-8.09
2023-03-31T19:32:07.771Z,-8.02
2023-03-31T19:34:35.002Z,-7.93
2023-03-31T19:37:03.581Z,-7.88
2023-03-31T19:39:31.574Z,-7.84
2023-03-31T19:41:58.742Z,-7.74
2023-03-31T19:44:26.514Z,-7.68
2023-03-31T19:46:54.134Z,-7.62
2023-03-31T19:49:21.425Z,-7.58
2023-03-31T19:51:48.597Z,-7.57
2023-03-31T19:54:16.242Z,-7.52
2023-03-31T19:56:44.496Z,-7.60
2023-03-31T19:59:11.948Z,-7.71
2023-03-31T20:01:39.485Z,-7.80
2023-03-31T20:04:07.260Z,-7.93
2023-03-31T20:06:35.562Z,-7.99
2023-03-31T20:09:03.397Z,-8.09
2023-03-31T20:11:31.907Z,-8.09
2023-03-31T20:13:59.492Z,-8.17
2023-03-31T20:16:27.941Z,-8.20
2023-03-31T20:19:03.846Z,-8.20
2023-03-31T20:21:33.372Z,-8.22
2023-03-31T20:24:01.371Z,-8.29
2023-03-31T20:26:30.102Z,-8.36
2023-03-31T20:28:58.398Z,-8.35
2023-03-31T20:31:27.693Z,-8.36
2023-03-31T20:33:55.635Z,-8.39
2023-03-31T20:36:28.914Z,-8.33
2023-03-31T20:38:56.889Z,-8.31
2023-03-31T20:41:28.887Z,-8.31
2023-03-31T20:43:56.535Z,-8.29
2023-03-31T20:46:24.780Z,-8.28
2023-03-31T20:48:57.142Z,-8.24
2023-03-31T20:51:31.158Z,-8.22
2023-03-31T20:53:59.063Z,-8.27
2023-03-31T20:56:31.472Z,-8.30
2023-03-31T20:58:58.842Z,-8.32
2023-03-31T21:01:27.531Z,-8.33
2023-03-31T21:03:58.717Z,-8.36
2023-03-31T21:06:27.017Z,-8.50
2023-03-31T21:08:54.664Z,-8.58
2023-03-31T21:11:24.830Z,-8.64
2023-03-31T21:13:52.962Z,-8.74
2023-03-31T21:16:20.600Z,-8.86
2023-03-31T21:18:48.310Z,-9.00
2023-03-31T21:21:18.788Z,-9.09
2023-03-31T21:23:46.748Z,-9.14
2023-03-31T21:26:15.834Z,-9.12
2023-03-31T21:28:43.343Z,-9.12
2023-03-31T21:31:15.569Z,-9.08
2023-03-31T21:33:43.031Z,-9.07
2023-03-31T21:36:18.692Z,-9.08
2023-03-31T21:38:46.422Z,-9.12
2023-03-31T21:41:18.637Z,-9.14
2023-03-31T21:43:45.762Z,-9.14
2023-03-31T21:46:16.940Z,-9.15
2023-03-31T21:48:44.335Z,-9.13
2023-03-31T21:51:11.720Z,-9.12
2023-03-31T21:53:38.836Z,-9.10
2023-03-31T21:56:06.169Z,-9.06
2023-03-31T21:58:34.037Z,-9.01
2023-03-31T22:01:03.627Z,-8.99
2023-03-31T22:03:33.896Z,-8.97
2023-03-31T22:06:06.626Z,-8.98
2023-03-31T22:08:33.896Z,-9.00
2023-03-31T22:11:01.216Z,-9.04
2023-03-31T22:13:28.627Z,-9.08
2023-03-31T22:15:56.378Z,-9.12
2023-03-31T22:18:23.743Z,-9.13
2023-03-31T22:20:50.964Z,-9.08
2023-03-31T22:23:20.252Z,-9.10
2023-03-31T22:25:47.570Z,-9.08
2023-03-31T22:28:15.869Z,-9.04
2023-03-31T22:30:43.722Z,-9.03
2023-03-31T22:33:11.121Z,-8.99
2023-03-31T22:35:38.359Z,-8.88
2023-03-31T22:38:06.602Z,-8.85
2023-03-31T22:40:34.970Z,-8.86
2023-03-31T22:43:02.410Z,-8.78
2023-03-31T22:45:29.596Z,-8.70
2023-03-31T22:47:57.119Z,-8.68
2023-03-31T22:50:24.542Z,-8.70
2023-03-31T22:52:52.102Z,-8.74
2023-03-31T22:55:19.608Z,-8.71
2023-03-31T22:57:46.982Z,-8.71
2023-03-31T23:00:14.634Z,-8.76
2023-03-31T23:02:41.906Z,-8.82
2023-03-31T23:05:09.730Z,-8.84
2023-03-31T23:07:37.970Z,-8.93
2023-03-31T23:10:05.825Z,-9.01
2023-03-31T23:12:33.597Z,-9.17
2023-03-31T23:15:01.410Z,-9.27
2023-03-31T23:17:29.020Z,-9.37
2023-03-31T23:19:56.802Z,-9.44
2023-03-31T23:22:25.504Z,-9.50
2023-03-31T23:24:53.050Z,-9.58
2023-03-31T23:27:20.901Z,-9.61
2023-03-31T23:29:47.805Z,-9.67
2023-03-31T23:32:15.599Z,-9.69
2023-03-31T23:34:43.296Z,-9.66
2023-03-31T23:37:11.821Z,-9.64
2023-03-31T23:39:39.015Z,-9.62
2023-03-31T23:42:07.288Z,-9.63
2023-03-31T23:44:37.492Z,-9.67
2023-03-31T23:47:05.646Z,-9.65
2023-03-31T23:49:33.709Z,-9.55
2023-03-31T23:52:01.114Z,-9.14
2023-03-31T23:54:28.640Z,-8.57
2023-03-31T23:56:56.049Z,-7.96
2023-03-31T23:59:23.769Z,-7.29
